createdAt,value
2017-11-25T00:02:12.531Z,84.87
2017-11-25T00:04:40.774Z,84.80
2017-11-25T00:07:09.789Z,84.69
2017-11-25T00:09:38.044Z,84.39
2017-11-25T00:12:07.048Z,84.39
2017-11-25T00:14:36.067Z,84.37
2017-11-25T00:17:04.310Z,83.91
2017-11-25T00:19:33.327Z,83.61
2017-11-25T00:22:01.576Z,83.38
2017-11-25T00:24:29.888Z,83.36
2017-11-25T00:26:58.210Z,83.12
2017-11-25T00:29:26.568Z,83.02
2017-11-25T00:31:54.805Z,83.00
2017-11-25T00:34:23.060Z,82.99
2017-11-25T00:36:52.142Z,82.68
2017-11-25T00:39:21.148Z,82.64
2017-11-25T00:41:50.171Z,83.05
2017-11-25T00:44:18.411Z,83.20
2017-11-25T00:46:47.423Z,84.32
2017-11-25T00:49:15.671Z,85.43
2017-11-25T00:51:43.911Z,86.30
2017-11-25T00:54:12.147Z,87.22
2017-11-25T00:56:40.399Z,87.29
2017-11-25T00:59:08.631Z,87.47
2017-11-25T01:01:36.881Z,87.82
2017-11-25T01:04:05.115Z,87.92
2017-11-25T01:06:33.358Z,88.03
2017-11-25T01:09:01.599Z,87.78
2017-11-25T01:11:29.846Z,87.79
2017-11-25T01:13:58.084Z,88.28
2017-11-25T01:16:26.322Z,88.71
2017-11-25T01:18:54.571Z,88.93
2017-11-25T01:21:22.809Z,89.10
2017-11-25T01:23:51.042Z,89.28
2017-11-25T01:26:20.052Z,89.87
2017-11-25T01:28:48.290Z,89.45
2017-11-25T01:31:16.535Z,90.01
2017-11-25T01:33:44.771Z,90.14
2017-11-25T01:36:13.028Z,90.26
2017-11-25T01:38:42.028Z,89.83
2017-11-25T01:41:11.045Z,89.40
2017-11-25T01:43:39.284Z,90.00
2017-11-25T01:46:08.289Z,89.95
2017-11-25T01:48:37.292Z,89.62
2017-11-25T01:51:05.538Z,89.89
2017-11-25T01:53:33.788Z,89.90
2017-11-25T01:56:02.029Z,89.83
2017-11-25T01:58:30.282Z,90.09
2017-11-25T02:00:59.278Z,90.53
2017-11-25T02:03:27.526Z,90.98
2017-11-25T02:05:55.766Z,91.35
2017-11-25T02:08:24.002Z,91.01
2017-11-25T02:10:53.004Z,91.15
2017-11-25T02:13:21.251Z,91.57
2017-11-25T02:15:50.254Z,91.60
2017-11-25T02:18:19.273Z,91.72
2017-11-25T02:20:47.505Z,91.41
2017-11-25T02:23:15.755Z,91.68
2017-11-25T02:25:43.986Z,91.45
2017-11-25T02:28:12.244Z,91.96
2017-11-25T02:30:41.239Z,91.98
2017-11-25T02:33:10.247Z,92.26
2017-11-25T02:35:38.492Z,92.00
2017-11-25T02:38:06.744Z,92.10
2017-11-25T02:40:34.976Z,91.87
2017-11-25T02:43:03.224Z,91.68
2017-11-25T02:45:31.460Z,91.46
2017-11-25T02:47:59.703Z,91.29
2017-11-25T02:50:27.956Z,91.00
2017-11-25T02:52:56.191Z,90.90
2017-11-25T02:55:24.430Z,90.82
2017-11-25T02:57:52.674Z,90.83
2017-11-25T03:00:20.912Z,90.55
2017-11-25T03:02:49.152Z,89.82
2017-11-25T03:05:17.383Z,90.05
2017-11-25T03:07:45.628Z,89.03
2017-11-25T03:10:13.867Z,89.50
2017-11-25T03:12:42.865Z,89.58
2017-11-25T03:15:11.097Z,90.01
2017-11-25T03:17:39.347Z,89.82
2017-11-25T03:20:07.585Z,89.87
2017-11-25T03:22:35.837Z,90.27
2017-11-25T03:25:04.083Z,90.78
2017-11-25T03:27:32.320Z,90.90
2017-11-25T03:30:00.802Z,91.22
2017-11-25T03:32:29.034Z,90.62
2017-11-25T03:34:57.296Z,90.48
2017-11-25T03:37:25.526Z,89.23
2017-11-25T03:39:53.776Z,89.26
2017-11-25T03:42:22.778Z,89.93
2017-11-25T03:44:51.796Z,89.65
2017-11-25T03:47:20.026Z,89.70
2017-11-25T03:49:48.270Z,90.38
2017-11-25T03:52:16.515Z,91.03
2017-11-25T03:54:44.763Z,91.24
2017-11-25T03:57:13.773Z,91.42
2017-11-25T03:59:42.779Z,91.53
2017-11-25T04:02:11.020Z,91.52
2017-11-25T04:04:40.031Z,91.46
2017-11-25T04:07:09.036Z,91.60
2017-11-25T04:09:37.282Z,92.05
2017-11-25T04:12:06.287Z,92.18
2017-11-25T04:14:35.312Z,92.15
2017-11-25T04:17:03.558Z,91.82
2017-11-25T04:19:32.559Z,91.92
2017-11-25T04:22:00.820Z,92.09
2017-11-25T04:24:29.825Z,92.02
2017-11-25T04:26:58.832Z,91.93
2017-11-25T04:29:27.071Z,91.47
2017-11-25T04:31:55.320Z,91.78
2017-11-25T04:34:23.556Z,91.59
2017-11-25T04:36:51.794Z,91.75
2017-11-25T04:39:20.814Z,92.00
2017-11-25T04:41:49.053Z,92.15
2017-11-25T04:44:17.290Z,92.10
2017-11-25T04:46:45.539Z,91.82
2017-11-25T04:49:13.787Z,92.04
2017-11-25T04:51:42.024Z,91.82
2017-11-25T04:54:10.277Z,91.80
2017-11-25T04:56:38.520Z,91.43
2017-11-25T04:59:06.752Z,91.30
2017-11-25T05:01:35.002Z,91.49
2017-11-25T05:04:03.257Z,91.71
2017-11-25T05:06:32.257Z,91.20
2017-11-25T05:09:00.516Z,91.14
2017-11-25T05:11:28.745Z,91.50
2017-11-25T05:13:56.994Z,91.43
2017-11-25T05:16:25.232Z,91.46
2017-11-25T05:18:53.472Z,91.27
2017-11-25T05:21:22.476Z,91.36
2017-11-25T05:23:50.731Z,91.76
2017-11-25T05:26:18.968Z,91.11
2017-11-25T05:28:47.973Z,91.36
2017-11-25T05:31:16.211Z,91.25
2017-11-25T05:33:44.459Z,91.49
2017-11-25T05:36:12.706Z,91.24
2017-11-25T05:38:40.955Z,91.74
2017-11-25T05:41:10.932Z,91.74
2017-11-25T05:43:39.168Z,92.12
2017-11-25T05:46:07.410Z,92.06
2017-11-25T05:48:36.405Z,92.21
2017-11-25T05:51:05.416Z,92.23
2017-11-25T05:53:34.428Z,91.88
2017-11-25T05:56:02.667Z,91.85
2017-11-25T05:58:31.658Z,91.97
2017-11-25T06:01:00.676Z,92.03
2017-11-25T06:03:28.903Z,92.23
2017-11-25T06:05:57.164Z,92.00
2017-11-25T06:08:25.398Z,92.40
2017-11-25T06:10:53.645Z,92.43
2017-11-25T06:13:21.879Z,92.38
2017-11-25T06:15:50.136Z,92.52
2017-11-25T06:18:18.385Z,92.30
2017-11-25T06:20:47.393Z,92.76
2017-11-25T06:23:15.629Z,92.90
2017-11-25T06:25:43.886Z,92.86
2017-11-25T06:28:12.119Z,92.87
2017-11-25T06:30:40.360Z,92.71
2017-11-25T06:33:08.596Z,92.61
2017-11-25T06:35:36.831Z,92.21
2017-11-25T06:38:05.849Z,91.98
2017-11-25T06:40:34.080Z,92.14
2017-11-25T06:43:02.327Z,92.07
2017-11-25T06:45:30.559Z,92.24
2017-11-25T06:47:58.812Z,92.13
2017-11-25T06:50:27.814Z,92.25
2017-11-25T06:52:56.824Z,92.36
2017-11-25T06:55:25.062Z,92.41
2017-11-25T06:57:53.314Z,91.54
2017-11-25T07:00:21.549Z,91.22
2017-11-25T07:02:49.807Z,90.08
2017-11-25T07:05:18.813Z,88.96
2017-11-25T07:07:47.124Z,88.54
2017-11-25T07:10:15.411Z,89.06
2017-11-25T07:12:43.691Z,89.62
2017-11-25T07:15:11.984Z,89.72
2017-11-25T07:17:40.279Z,89.42
2017-11-25T07:20:09.323Z,89.41
2017-11-25T07:22:37.692Z,89.85
2017-11-25T07:25:06.003Z,89.82
2017-11-25T07:27:34.258Z,90.00
2017-11-25T07:30:02.842Z,89.95
2017-11-25T07:32:31.113Z,90.46
2017-11-25T07:34:59.391Z,90.46
2017-11-25T07:37:27.691Z,90.75
2017-11-25T07:39:55.953Z,90.72
2017-11-25T07:42:24.253Z,90.46
2017-11-25T07:44:52.541Z,90.64
2017-11-25T07:47:21.629Z,91.05
2017-11-25T07:49:50.709Z,90.84
2017-11-25T07:52:19.031Z,91.00
2017-11-25T07:54:47.326Z,91.31
2017-11-25T07:57:15.643Z,91.43
2017-11-25T07:59:43.968Z,91.10
2017-11-25T08:02:12.281Z,91.33
2017-11-25T08:04:40.564Z,91.24
2017-11-25T08:07:08.867Z,90.79
2017-11-25T08:09:37.928Z,90.88
2017-11-25T08:12:06.251Z,90.77
2017-11-25T08:14:35.331Z,90.91
2017-11-25T08:17:04.399Z,90.53
2017-11-25T08:19:32.691Z,90.71
2017-11-25T08:22:01.018Z,90.40
2017-11-25T08:24:29.331Z,91.03
2017-11-25T08:26:57.660Z,91.28
2017-11-25T08:29:25.945Z,91.52
2017-11-25T08:31:54.271Z,91.30
2017-11-25T08:34:22.585Z,91.19
2017-11-25T08:36:50.892Z,91.00
2017-11-25T08:39:19.191Z,91.36
2017-11-25T08:41:47.484Z,91.16
2017-11-25T08:44:15.783Z,91.26
2017-11-25T08:46:44.871Z,91.14
2017-11-25T08:49:13.967Z,90.56
2017-11-25T08:51:43.041Z,90.58
2017-11-25T08:54:12.132Z,91.05
2017-11-25T08:56:40.436Z,90.58
2017-11-25T08:59:09.512Z,90.50
2017-11-25T09:01:37.828Z,90.43
2017-11-25T09:04:06.134Z,90.65
2017-11-25T09:06:34.454Z,90.70
2017-11-25T09:09:03.547Z,90.72
2017-11-25T09:11:32.616Z,90.46
2017-11-25T09:14:00.914Z,90.60
2017-11-25T09:16:29.223Z,90.74
2017-11-25T09:18:57.554Z,90.10
2017-11-25T09:21:25.841Z,90.24
2017-11-25T09:23:54.177Z,89.94
2017-11-25T09:26:22.481Z,90.04
2017-11-25T09:28:50.803Z,89.16
2017-11-25T09:31:19.085Z,89.38
2017-11-25T09:33:47.363Z,89.18
2017-11-25T09:36:15.618Z,89.59
2017-11-25T09:38:44.637Z,89.01
2017-11-25T09:41:12.912Z,88.60
2017-11-25T09:43:41.165Z,88.40
2017-11-25T09:46:09.429Z,88.71
2017-11-25T09:48:38.437Z,88.31
2017-11-25T09:51:06.699Z,88.77
2017-11-25T09:53:35.715Z,88.79
2017-11-25T09:56:03.971Z,88.76
2017-11-25T09:58:32.279Z,88.63
2017-11-25T10:01:00.600Z,87.95
2017-11-25T10:03:28.860Z,87.85
2017-11-25T10:05:57.110Z,88.28
2017-11-25T10:08:26.374Z,88.09
2017-11-25T10:10:54.739Z,86.94
2017-11-25T10:13:22.996Z,86.78
2017-11-25T10:15:51.266Z,86.63
2017-11-25T10:18:19.521Z,87.26
2017-11-25T10:20:48.562Z,86.13
2017-11-25T10:23:17.579Z,87.09
2017-11-25T10:25:45.851Z,87.35
2017-11-25T10:28:14.122Z,86.02
2017-11-25T10:30:43.153Z,86.77
2017-11-25T10:33:11.427Z,86.29
2017-11-25T10:35:39.677Z,85.45
2017-11-25T10:38:07.942Z,86.65
2017-11-25T10:40:36.968Z,86.63
2017-11-25T10:43:05.239Z,86.70
2017-11-25T10:45:33.517Z,86.91
2017-11-25T10:48:01.818Z,86.81
2017-11-25T10:50:30.088Z,85.79
2017-11-25T10:52:58.351Z,86.46
2017-11-25T10:55:26.633Z,86.78
2017-11-25T10:57:54.917Z,86.15
2017-11-25T11:00:23.189Z,86.71
2017-11-25T11:02:51.458Z,86.36
2017-11-25T11:05:19.753Z,86.63
2017-11-25T11:07:48.029Z,85.58
2017-11-25T11:10:16.310Z,86.80
2017-11-25T11:12:44.550Z,86.00
2017-11-25T11:15:12.888Z,85.83
2017-11-25T11:17:41.999Z,85.54
2017-11-25T11:20:10.247Z,85.68
2017-11-25T11:22:38.483Z,86.34
2017-11-25T11:25:06.733Z,86.67
2017-11-25T11:27:34.975Z,86.63
2017-11-25T11:30:03.395Z,86.82
2017-11-25T11:32:31.636Z,87.17
2017-11-25T11:35:00.670Z,86.98
2017-11-25T11:37:28.896Z,86.89
2017-11-25T11:39:57.152Z,86.93
2017-11-25T11:42:25.388Z,86.75
2017-11-25T11:44:53.648Z,86.37
2017-11-25T11:47:21.896Z,86.09
2017-11-25T11:49:50.329Z,85.63
2017-11-25T11:52:18.754Z,86.24
2017-11-25T11:54:47.240Z,85.79
2017-11-25T11:57:15.613Z,84.78
2017-11-25T11:59:44.008Z,85.89
2017-11-25T12:02:13.089Z,85.24
2017-11-25T12:04:42.353Z,85.51
2017-11-25T12:07:10.804Z,85.72
2017-11-25T12:09:39.111Z,85.84
2017-11-25T12:12:07.632Z,85.85
2017-11-25T12:14:36.718Z,85.68
2017-11-25T12:17:05.043Z,85.57
2017-11-25T12:19:33.358Z,85.53
2017-11-25T12:22:01.776Z,85.78
2017-11-25T12:24:30.861Z,85.59
2017-11-25T12:26:59.948Z,85.52
2017-11-25T12:29:29.038Z,85.79
2017-11-25T12:31:57.365Z,85.42
2017-11-25T12:34:25.662Z,85.17
2017-11-25T12:36:54.004Z,85.05
2017-11-25T12:39:22.316Z,85.32
2017-11-25T12:41:50.692Z,86.00
2017-11-25T12:44:19.029Z,85.50
2017-11-25T12:46:47.422Z,84.69
2017-11-25T12:49:15.774Z,84.83
2017-11-25T12:51:44.894Z,85.01
2017-11-25T12:54:13.271Z,85.41
2017-11-25T12:56:41.601Z,85.90
2017-11-25T12:59:09.910Z,87.00
2017-11-25T13:01:38.239Z,86.67
2017-11-25T13:04:06.609Z,87.02
2017-11-25T13:06:35.680Z,88.68
2017-11-25T13:09:04.046Z,89.16
2017-11-25T13:11:32.339Z,90.40
2017-11-25T13:14:00.666Z,90.72
2017-11-25T13:16:28.947Z,90.36
2017-11-25T13:18:57.231Z,90.98
2017-11-25T13:21:26.299Z,90.78
2017-11-25T13:23:54.553Z,90.68
2017-11-25T13:26:22.812Z,90.67
2017-11-25T13:28:51.070Z,90.32
2017-11-25T13:31:19.338Z,89.71
2017-11-25T13:33:48.364Z,88.99
2017-11-25T13:36:16.612Z,88.40
2017-11-25T13:38:44.852Z,88.08
2017-11-25T13:41:13.086Z,88.44
2017-11-25T13:43:41.333Z,88.54
2017-11-25T13:46:10.358Z,88.94
2017-11-25T13:48:38.596Z,88.71
2017-11-25T13:51:07.607Z,89.18
2017-11-25T13:53:35.853Z,88.80
2017-11-25T13:56:04.857Z,89.13
2017-11-25T13:58:33.883Z,89.32
2017-11-25T14:01:02.126Z,89.40
2017-11-25T14:03:31.134Z,88.93
2017-11-25T14:05:59.423Z,89.57
2017-11-25T14:08:27.666Z,88.99
2017-11-25T14:10:56.671Z,87.96
2017-11-25T14:13:24.918Z,88.00
2017-11-25T14:15:53.162Z,86.00
2017-11-25T14:18:21.407Z,85.96
2017-11-25T14:20:49.643Z,86.37
2017-11-25T14:23:17.903Z,87.14
2017-11-25T14:25:46.122Z,87.78
2017-11-25T14:28:14.373Z,88.60
2017-11-25T14:30:42.607Z,88.53
2017-11-25T14:33:11.623Z,88.27
2017-11-25T14:35:39.856Z,88.27
2017-11-25T14:38:08.119Z,88.49
2017-11-25T14:40:36.362Z,88.29
2017-11-25T14:43:04.606Z,87.98
2017-11-25T14:45:32.855Z,88.06
2017-11-25T14:48:01.095Z,88.31
2017-11-25T14:50:29.345Z,88.86
2017-11-25T14:52:57.590Z,89.35
2017-11-25T14:55:25.871Z,89.20
2017-11-25T14:57:54.101Z,89.44
2017-11-25T15:00:23.117Z,89.09
2017-11-25T15:02:51.356Z,89.89
2017-11-25T15:05:19.637Z,89.42
2017-11-25T15:07:47.883Z,89.35
2017-11-25T15:10:16.139Z,89.34
2017-11-25T15:12:44.423Z,89.60
2017-11-25T15:15:12.723Z,89.79
2017-11-25T15:17:40.997Z,89.41
2017-11-25T15:20:09.269Z,89.62
2017-11-25T15:22:37.688Z,89.45
2017-11-25T15:25:06.713Z,89.32
2017-11-25T15:27:35.012Z,89.14
2017-11-25T15:30:03.285Z,89.08
2017-11-25T15:32:31.586Z,89.29
2017-11-25T15:34:59.901Z,89.37
2017-11-25T15:37:28.220Z,89.03
2017-11-25T15:39:56.580Z,89.24
2017-11-25T15:42:24.927Z,89.32
2017-11-25T15:44:53.272Z,88.93
2017-11-25T15:47:21.592Z,88.85
2017-11-25T15:49:49.891Z,88.66
2017-11-25T15:52:18.224Z,88.89
2017-11-25T15:54:47.315Z,89.14
2017-11-25T15:57:16.386Z,88.88
2017-11-25T15:59:44.720Z,88.90
2017-11-25T16:02:13.062Z,89.29
2017-11-25T16:04:42.115Z,88.34
2017-11-25T16:07:10.417Z,87.96
2017-11-25T16:09:38.742Z,87.73
2017-11-25T16:12:07.041Z,88.01
2017-11-25T16:14:35.384Z,87.95
2017-11-25T16:17:04.447Z,86.37
2017-11-25T16:19:32.770Z,86.18
2017-11-25T16:22:01.088Z,86.80
2017-11-25T16:24:29.393Z,86.93
2017-11-25T16:26:58.486Z,87.35
2017-11-25T16:29:27.569Z,86.75
2017-11-25T16:31:55.904Z,86.72
2017-11-25T16:34:24.217Z,87.53
2017-11-25T16:36:52.541Z,87.16
2017-11-25T16:39:20.852Z,87.36
2017-11-25T16:41:49.179Z,87.68
2017-11-25T16:44:17.504Z,87.11
2017-11-25T16:46:45.816Z,87.22
2017-11-25T16:49:14.909Z,86.54
2017-11-25T16:51:43.988Z,87.15
2017-11-25T16:54:12.320Z,86.21
2017-11-25T16:56:40.651Z,86.75
2017-11-25T16:59:09.761Z,87.70
2017-11-25T17:01:38.845Z,88.40
2017-11-25T17:04:08.744Z,87.32
2017-11-25T17:06:37.059Z,87.33
2017-11-25T17:09:06.145Z,87.78
2017-11-25T17:11:35.226Z,88.03
2017-11-25T17:14:04.321Z,88.81
2017-11-25T17:16:33.418Z,88.98
2017-11-25T17:19:02.535Z,88.86
2017-11-25T17:21:30.867Z,88.20
2017-11-25T17:23:59.177Z,88.50
2017-11-25T17:26:27.561Z,87.16
2017-11-25T17:28:56.640Z,86.78
2017-11-25T17:31:25.707Z,86.92
2017-11-25T17:33:54.035Z,87.17
2017-11-25T17:36:22.366Z,86.95
2017-11-25T17:38:50.704Z,86.54
2017-11-25T17:41:19.035Z,86.62
2017-11-25T17:43:47.340Z,86.66
2017-11-25T17:46:15.670Z,86.76
2017-11-25T17:48:43.992Z,86.59
2017-11-25T17:51:12.323Z,86.46
2017-11-25T17:53:40.656Z,85.78
2017-11-25T17:56:08.954Z,86.07
2017-11-25T17:58:37.275Z,85.58
2017-11-25T18:01:05.620Z,85.61
2017-11-25T18:03:33.877Z,85.40
2017-11-25T18:06:02.195Z,86.01
2017-11-25T18:08:30.476Z,85.71
2017-11-25T18:10:58.715Z,85.80
2017-11-25T18:13:27.128Z,86.26
2017-11-25T18:15:55.448Z,86.73
2017-11-25T18:18:23.748Z,86.12
2017-11-25T18:20:52.020Z,86.27
2017-11-25T18:23:20.313Z,86.38
2017-11-25T18:25:48.601Z,86.08
2017-11-25T18:28:16.971Z,86.38
2017-11-25T18:30:45.385Z,86.94
2017-11-25T18:33:13.708Z,86.07
2017-11-25T18:35:42.119Z,87.39
2017-11-25T18:38:11.213Z,85.90
2017-11-25T18:40:39.601Z,85.16
2017-11-25T18:43:08.809Z,86.06
2017-11-25T18:45:37.993Z,86.11
2017-11-25T18:48:06.305Z,84.34
2017-11-25T18:50:34.586Z,83.72
2017-11-25T18:53:02.849Z,83.05
2017-11-25T18:55:31.871Z,82.92
2017-11-25T18:58:00.141Z,83.16
2017-11-25T19:00:28.439Z,82.96
2017-11-25T19:02:56.713Z,83.92
2017-11-25T19:05:24.982Z,83.83
2017-11-25T19:07:53.243Z,83.50
2017-11-25T19:10:21.514Z,84.05
2017-11-25T19:12:49.771Z,83.26
2017-11-25T19:15:18.809Z,82.49
2017-11-25T19:17:47.080Z,83.27
2017-11-25T19:20:15.460Z,82.15
2017-11-25T19:22:43.729Z,83.00
2017-11-25T19:25:12.018Z,83.35
2017-11-25T19:27:40.292Z,82.72
2017-11-25T19:30:08.555Z,83.05
2017-11-25T19:32:36.825Z,83.23
2017-11-25T19:35:05.095Z,82.41
2017-11-25T19:37:33.396Z,82.85
2017-11-25T19:40:03.172Z,83.53
2017-11-25T19:42:31.428Z,83.82
2017-11-25T19:45:00.505Z,83.80
2017-11-25T19:47:28.750Z,84.02
2017-11-25T19:49:57.016Z,84.70
2017-11-25T19:52:25.277Z,85.51
2017-11-25T19:54:53.559Z,85.02
2017-11-25T19:57:21.812Z,85.66
2017-11-25T19:59:50.833Z,84.58
2017-11-25T20:02:19.100Z,84.71
2017-11-25T20:04:48.147Z,84.84
2017-11-25T20:07:16.400Z,85.42
2017-11-25T20:09:44.684Z,85.54
2017-11-25T20:12:12.941Z,85.32
2017-11-25T20:14:41.215Z,85.91
2017-11-25T20:17:09.514Z,85.55
2017-11-25T20:19:37.777Z,86.12
2017-11-25T20:22:06.041Z,86.16
2017-11-25T20:24:34.287Z,85.19
2017-11-25T20:27:02.560Z,86.34
2017-11-25T20:29:30.839Z,86.09
2017-11-25T20:31:59.118Z,86.23
2017-11-25T20:34:28.168Z,86.52
2017-11-25T20:36:56.432Z,86.67
2017-11-25T20:39:24.682Z,86.61
2017-11-25T20:41:52.959Z,86.27
2017-11-25T20:44:21.224Z,87.01
2017-11-25T20:46:49.491Z,86.87
2017-11-25T20:49:17.784Z,87.08
2017-11-25T20:51:46.069Z,87.35
2017-11-25T20:54:14.327Z,87.25
2017-11-25T20:56:42.619Z,87.47
2017-11-25T20:59:10.918Z,87.70
2017-11-25T21:01:39.177Z,87.80
2017-11-25T21:04:07.452Z,88.02
2017-11-25T21:06:35.747Z,88.11
2017-11-25T21:09:04.019Z,88.37
2017-11-25T21:11:32.291Z,88.44
2017-11-25T21:14:00.602Z,88.30
2017-11-25T21:16:28.861Z,88.65
2017-11-25T21:18:57.124Z,88.41
2017-11-25T21:21:25.395Z,88.57
2017-11-25T21:23:53.653Z,88.42
2017-11-25T21:26:21.912Z,88.06
2017-11-25T21:28:50.190Z,88.42
2017-11-25T21:31:18.476Z,88.31
2017-11-25T21:33:46.761Z,88.18
2017-11-25T21:36:15.891Z,88.09
2017-11-25T21:38:44.147Z,88.04
2017-11-25T21:41:12.417Z,87.88
2017-11-25T21:43:40.705Z,88.01
2017-11-25T21:46:09.015Z,88.06
2017-11-25T21:48:38.037Z,87.91
2017-11-25T21:51:06.335Z,87.75
2017-11-25T21:53:34.608Z,88.00
2017-11-25T21:56:02.878Z,88.21
2017-11-25T21:58:31.135Z,87.86
2017-11-25T22:00:59.427Z,87.96
2017-11-25T22:03:54.134Z,87.84
2017-11-25T22:44:28.935Z,88.30
2017-11-25T22:46:57.196Z,87.66
2017-11-25T22:49:25.444Z,88.39
2017-11-25T22:51:53.691Z,88.00
2017-11-25T22:54:21.976Z,88.27
2017-11-25T22:56:50.227Z,88.47
2017-11-25T22:59:19.592Z,88.54
2017-11-25T23:01:47.858Z,88.63
2017-11-25T23:04:16.114Z,88.52
2017-11-25T23:06:44.381Z,88.54
2017-11-25T23:09:12.636Z,88.61
2017-11-25T23:11:41.663Z,88.55
2017-11-25T23:14:09.924Z,88.65
2017-11-25T23:16:38.236Z,88.61
2017-11-25T23:19:06.483Z,88.63
2017-11-25T23:21:34.757Z,88.27
2017-11-25T23:24:03.008Z,88.33
2017-11-25T23:26:32.036Z,88.19
2017-11-25T23:29:00.345Z,88.20
2017-11-25T23:31:28.605Z,88.43
2017-11-25T23:33:56.853Z,88.40
2017-11-25T23:36:25.122Z,88.42
2017-11-25T23:38:53.586Z,88.72
2017-11-25T23:41:22.656Z,88.63
2017-11-25T23:43:50.950Z,88.65
2017-11-25T23:46:20.030Z,89.01
2017-11-25T23:48:48.311Z,88.67
2017-11-25T23:51:16.658Z,88.50
2017-11-25T23:53:44.941Z,88.50
2017-11-25T23:56:13.209Z,88.84
2017-11-25T23:58:41.474Z,88.45
